createdAt,value
2017-08-09T00:00:18.795Z,1.60
2017-08-09T00:02:46.000Z,1.90
2017-08-09T00:05:13.206Z,2.07
2017-08-09T00:07:40.411Z,2.00
2017-08-09T00:10:07.616Z,1.97
2017-08-09T00:12:34.840Z,3.10
2017-08-09T00:15:02.060Z,1.77
2017-08-09T00:17:29.252Z,2.10
2017-08-09T00:19:56.461Z,1.90
2017-08-09T00:22:23.660Z,1.87
2017-08-09T00:24:52.834Z,2.37
2017-08-09T00:27:20.035Z,2.63
2017-08-09T00:29:47.541Z,2.40
2017-08-09T00:32:14.754Z,2.50
2017-08-09T00:34:42.256Z,2.17
2017-08-09T00:37:09.485Z,1.63
2017-08-09T00:39:36.686Z,2.10
2017-08-09T00:42:03.913Z,2.00
2017-08-09T00:44:31.117Z,1.83
2017-08-09T00:46:59.284Z,1.80
2017-08-09T00:49:26.512Z,1.93
2017-08-09T00:51:53.712Z,1.63
2017-08-09T00:54:20.917Z,1.73
2017-08-09T00:56:48.138Z,2.00
2017-08-09T00:59:15.340Z,1.70
2017-08-09T01:01:43.613Z,1.80
2017-08-09T01:04:10.832Z,1.43
2017-08-09T01:06:38.060Z,1.77
2017-08-09T01:09:05.285Z,1.67
2017-08-09T01:11:32.516Z,1.57
2017-08-09T01:13:59.744Z,1.47
2017-08-09T01:16:26.972Z,1.97
2017-08-09T01:18:54.222Z,2.17
2017-08-09T01:21:21.499Z,2.20
2017-08-09T01:23:48.724Z,2.00
2017-08-09T01:26:15.948Z,2.03
2017-08-09T01:28:43.470Z,2.22
2017-08-09T01:31:12.660Z,2.00
2017-08-09T01:33:39.892Z,1.90
2017-08-09T01:36:07.602Z,1.70
2017-08-09T01:38:35.102Z,2.05
2017-08-09T01:41:03.642Z,1.92
2017-08-09T01:43:30.874Z,1.80
2017-08-09T01:45:58.384Z,2.37
2017-08-09T01:48:25.900Z,2.40
2017-08-09T01:50:53.126Z,2.10
2017-08-09T01:53:20.361Z,2.00
2017-08-09T01:55:49.564Z,1.77
2017-08-09T01:58:16.793Z,2.00
2017-08-09T02:00:46.014Z,1.63
2017-08-09T02:03:13.249Z,1.80
2017-08-09T02:05:40.479Z,1.57
2017-08-09T02:08:07.710Z,1.77
2017-08-09T02:10:34.936Z,1.70
2017-08-09T02:13:02.165Z,1.60
2017-08-09T02:15:29.397Z,1.67
2017-08-09T02:17:56.905Z,1.52
2017-08-09T02:20:24.416Z,1.70
2017-08-09T02:22:51.637Z,1.77
2017-08-09T02:25:18.864Z,1.70
2017-08-09T02:27:46.101Z,1.80
2017-08-09T02:30:13.620Z,2.28
2017-08-09T02:32:40.854Z,2.37
2017-08-09T02:35:08.102Z,2.07
2017-08-09T02:37:36.441Z,2.10
2017-08-09T02:40:03.950Z,2.00
2017-08-09T02:42:31.461Z,2.30
2017-08-09T02:44:58.985Z,2.62
2017-08-09T02:47:26.208Z,2.30
2017-08-09T02:49:53.461Z,2.50
2017-08-09T02:52:20.685Z,2.13
2017-08-09T02:54:48.192Z,2.22
2017-08-09T02:57:15.424Z,2.93
2017-08-09T02:59:42.660Z,2.90
2017-08-09T03:02:09.894Z,1.80
2017-08-09T03:04:37.401Z,2.50
2017-08-09T03:07:04.937Z,2.40
2017-08-09T03:09:32.452Z,2.55
2017-08-09T03:12:00.961Z,2.70
2017-08-09T03:14:28.469Z,2.45
2017-08-09T03:16:55.752Z,3.25
2017-08-09T03:19:23.299Z,8.50
2017-08-09T03:21:50.826Z,4.07
2017-08-09T03:24:18.281Z,3.27
2017-08-09T03:26:47.470Z,3.20
2017-08-09T03:29:14.688Z,2.97
2017-08-09T03:31:42.212Z,3.00
2017-08-09T03:34:09.729Z,2.95
2017-08-09T03:36:37.248Z,3.10
2017-08-09T03:39:06.432Z,2.83
2017-08-09T03:41:33.664Z,2.13
2017-08-09T03:44:01.176Z,2.30
2017-08-09T03:46:30.350Z,2.50
2017-08-09T03:48:57.573Z,2.23
2017-08-09T03:51:24.792Z,2.53
2017-08-09T03:53:52.008Z,2.57
2017-08-09T03:56:21.464Z,2.35
2017-08-09T03:58:48.686Z,2.40
2017-08-09T04:01:17.225Z,2.45
2017-08-09T04:03:44.744Z,2.67
2017-08-09T04:06:12.249Z,2.78
2017-08-09T04:08:39.765Z,3.20
2017-08-09T04:11:06.992Z,2.90
2017-08-09T04:13:34.504Z,3.70
2017-08-09T04:16:02.022Z,6.07
2017-08-09T04:18:31.237Z,2.97
2017-08-09T04:20:59.744Z,2.03
2017-08-09T04:23:29.204Z,2.53
2017-08-09T04:25:56.442Z,1.67
2017-08-09T04:28:23.950Z,1.75
2017-08-09T04:31:05.600Z,2.00
2017-08-09T04:33:33.102Z,1.80
2017-08-09T04:36:00.616Z,2.00
2017-08-09T04:38:27.836Z,2.17
2017-08-09T04:40:55.069Z,1.87
2017-08-09T04:43:22.569Z,2.53
2017-08-09T04:45:50.079Z,2.12
2017-08-09T04:48:17.585Z,1.60
2017-08-09T04:50:45.098Z,2.20
2017-08-09T04:53:12.616Z,2.83
2017-08-09T04:55:40.160Z,2.83
2017-08-09T04:58:07.724Z,2.45
2017-08-09T05:00:35.257Z,2.30
2017-08-09T05:03:02.791Z,1.83
2017-08-09T05:05:30.304Z,1.70
2017-08-09T05:07:57.829Z,2.50
2017-08-09T05:10:25.337Z,2.00
2017-08-09T05:12:53.906Z,1.75
2017-08-09T05:15:21.421Z,1.80
2017-08-09T05:17:48.958Z,1.75
2017-08-09T05:20:16.484Z,2.15
2017-08-09T05:22:44.983Z,2.00
2017-08-09T05:25:13.500Z,1.80
2017-08-09T05:27:41.024Z,1.77
2017-08-09T05:30:08.538Z,1.85
2017-08-09T05:32:36.045Z,1.83
2017-08-09T05:35:03.548Z,2.20
2017-08-09T05:37:31.061Z,1.95
2017-08-09T05:40:00.221Z,1.90
2017-08-09T05:42:27.451Z,1.90
2017-08-09T05:44:54.673Z,2.30
2017-08-09T05:47:23.834Z,2.03
2017-08-09T05:49:51.070Z,1.80
2017-08-09T05:52:18.285Z,2.07
2017-08-09T05:54:47.416Z,1.90
2017-08-09T05:57:14.641Z,1.53
2017-08-09T05:59:41.867Z,1.87
2017-08-09T06:02:09.097Z,2.13
2017-08-09T06:04:36.321Z,1.53
2017-08-09T06:07:03.546Z,1.40
2017-08-09T06:09:30.770Z,1.80
2017-08-09T06:11:58.013Z,1.80
2017-08-09T06:14:25.905Z,1.63
2017-08-09T06:16:55.083Z,2.13
2017-08-09T06:19:22.307Z,2.20
2017-08-09T06:21:49.534Z,2.03
2017-08-09T06:24:16.748Z,3.10
2017-08-09T06:26:43.964Z,1.40
2017-08-09T06:29:11.188Z,1.40
2017-08-09T06:31:38.410Z,1.90
2017-08-09T06:34:05.632Z,1.57
2017-08-09T06:36:32.852Z,1.80
2017-08-09T06:39:00.077Z,1.37
2017-08-09T06:41:27.297Z,1.50
2017-08-09T06:43:54.513Z,1.83
2017-08-09T06:46:21.732Z,2.50
2017-08-09T06:48:48.948Z,1.63
2017-08-09T06:51:16.164Z,1.13
2017-08-09T06:53:43.392Z,1.30
2017-08-09T06:56:10.618Z,1.03
2017-08-09T06:58:37.841Z,1.37
2017-08-09T07:01:05.065Z,1.20
2017-08-09T07:03:32.284Z,1.30
2017-08-09T07:05:59.500Z,1.33
2017-08-09T07:08:26.717Z,1.20
2017-08-09T07:10:53.937Z,1.17
2017-08-09T07:13:21.165Z,1.17
2017-08-09T07:15:48.386Z,1.27
2017-08-09T07:18:15.609Z,1.30
2017-08-09T07:20:42.828Z,1.03
2017-08-09T07:23:11.987Z,1.10
2017-08-09T07:25:39.204Z,1.10
2017-08-09T07:28:06.420Z,1.10
2017-08-09T07:30:35.594Z,1.10
2017-08-09T07:33:02.812Z,1.10
2017-08-09T07:35:30.037Z,1.17
2017-08-09T07:37:59.187Z,1.13
2017-08-09T07:40:26.412Z,0.87
2017-08-09T07:42:53.642Z,0.90
2017-08-09T07:45:20.865Z,0.70
2017-08-09T07:47:48.100Z,0.80
2017-08-09T07:50:15.324Z,1.00
2017-08-09T07:52:42.543Z,1.00
2017-08-09T07:55:09.770Z,0.90
2017-08-09T07:57:36.993Z,0.90
2017-08-09T08:00:04.213Z,1.00
2017-08-09T08:02:31.453Z,0.80
2017-08-09T08:04:58.672Z,0.90
2017-08-09T08:07:25.891Z,1.50
2017-08-09T08:09:55.024Z,0.90
2017-08-09T08:12:22.257Z,1.00
2017-08-09T08:14:49.479Z,0.97
2017-08-09T08:17:16.720Z,0.87
2017-08-09T08:19:43.946Z,1.00
2017-08-09T08:22:11.162Z,1.00
2017-08-09T08:24:38.385Z,1.00
2017-08-09T08:27:05.620Z,0.80
2017-08-09T08:29:32.837Z,1.00
2017-08-09T08:32:00.064Z,0.87
2017-08-09T08:34:27.284Z,0.97
2017-08-09T08:36:54.510Z,1.10
2017-08-09T08:39:21.736Z,1.00
2017-08-09T08:41:48.962Z,0.80
2017-08-09T08:44:16.198Z,1.00
2017-08-09T08:46:43.416Z,0.70
2017-08-09T08:49:10.638Z,0.90
2017-08-09T08:51:37.853Z,1.00
2017-08-09T08:54:05.068Z,1.00
2017-08-09T08:56:32.292Z,0.93
2017-08-09T08:58:59.516Z,0.90
2017-08-09T09:01:26.746Z,0.80
2017-08-09T09:03:53.969Z,0.97
2017-08-09T09:06:21.188Z,0.90
2017-08-09T09:08:48.413Z,0.97
2017-08-09T09:11:15.641Z,0.90
2017-08-09T09:13:42.868Z,1.00
2017-08-09T09:16:10.090Z,1.40
2017-08-09T09:18:37.308Z,0.90
2017-08-09T09:21:04.537Z,0.80
2017-08-09T09:23:31.753Z,0.90
2017-08-09T09:25:58.972Z,0.90
2017-08-09T09:28:26.197Z,0.90
2017-08-09T09:30:55.386Z,0.90
2017-08-09T09:33:22.616Z,0.90
2017-08-09T09:35:49.847Z,0.90
2017-08-09T09:38:17.065Z,0.90
2017-08-09T09:40:44.287Z,0.80
2017-08-09T09:43:11.514Z,0.97
2017-08-09T09:45:38.753Z,0.80
2017-08-09T09:48:05.973Z,0.70
2017-08-09T09:50:35.133Z,0.87
2017-08-09T09:53:02.520Z,0.90
2017-08-09T09:55:29.736Z,0.80
2017-08-09T09:57:56.957Z,0.70
2017-08-09T10:00:26.125Z,0.80
2017-08-09T10:02:53.672Z,1.00
2017-08-09T10:05:21.713Z,1.00
2017-08-09T10:07:50.900Z,1.10
2017-08-09T10:10:18.118Z,1.00
2017-08-09T10:12:45.336Z,0.60
2017-08-09T10:15:14.496Z,0.80
2017-08-09T10:17:41.716Z,1.07
2017-08-09T10:20:09.911Z,0.90
2017-08-09T10:22:37.137Z,1.00
2017-08-09T10:25:04.674Z,1.00
2017-08-09T10:27:31.984Z,0.90
2017-08-09T10:30:01.184Z,0.80
2017-08-09T10:32:28.419Z,0.73
2017-08-09T10:34:55.658Z,1.40
2017-08-09T10:37:22.896Z,1.00
2017-08-09T10:39:52.077Z,0.77
2017-08-09T10:42:19.307Z,1.10
2017-08-09T10:44:46.528Z,0.93
2017-08-09T10:47:13.753Z,0.90
2017-08-09T10:49:41.001Z,0.90
2017-08-09T10:52:08.235Z,0.97
2017-08-09T10:54:37.394Z,0.90
2017-08-09T10:57:04.613Z,1.23
2017-08-09T10:59:31.841Z,0.90
2017-08-09T11:02:00.991Z,0.80
2017-08-09T11:04:28.201Z,1.50
2017-08-09T11:06:55.421Z,1.00
2017-08-09T11:09:22.649Z,1.00
2017-08-09T11:11:49.872Z,1.20
2017-08-09T11:14:17.089Z,0.87
2017-08-09T11:16:44.316Z,0.83
2017-08-09T11:19:11.541Z,1.20
2017-08-09T11:21:38.763Z,0.93
2017-08-09T11:24:05.988Z,0.83
2017-08-09T11:26:33.205Z,1.00
2017-08-09T11:29:00.429Z,0.80
2017-08-09T11:31:27.647Z,1.10
2017-08-09T11:33:54.880Z,0.80
2017-08-09T11:36:22.102Z,1.00
2017-08-09T11:38:49.317Z,1.00
2017-08-09T11:41:18.459Z,1.00
2017-08-09T11:43:45.687Z,1.10
2017-08-09T11:46:12.908Z,0.90
2017-08-09T11:48:40.129Z,1.07
2017-08-09T11:51:07.348Z,1.00
2017-08-09T11:53:34.564Z,0.80
2017-08-09T11:56:01.784Z,0.90
2017-08-09T11:58:29.005Z,0.90
2017-08-09T12:00:56.236Z,1.00
2017-08-09T12:03:23.517Z,1.10
2017-08-09T12:05:50.768Z,0.90
2017-08-09T12:08:18.005Z,0.93
2017-08-09T12:10:45.231Z,1.23
2017-08-09T12:13:12.461Z,1.13
2017-08-09T12:15:39.681Z,1.20
2017-08-09T12:18:06.905Z,1.03
2017-08-09T12:20:36.136Z,1.00
2017-08-09T12:23:03.361Z,1.03
2017-08-09T12:25:30.583Z,1.20
2017-08-09T12:27:57.813Z,1.30
2017-08-09T12:30:25.053Z,1.27
2017-08-09T12:32:52.261Z,1.50
2017-08-09T12:35:19.456Z,1.40
2017-08-09T12:37:46.652Z,1.57
2017-08-09T12:40:13.872Z,1.73
2017-08-09T12:42:43.012Z,1.83
2017-08-09T12:45:10.233Z,1.43
2017-08-09T12:47:37.464Z,1.73
2017-08-09T12:50:04.684Z,1.90
2017-08-09T12:52:31.913Z,2.00
2017-08-09T12:55:01.053Z,1.97
2017-08-09T12:57:28.277Z,2.00
2017-08-09T12:59:55.506Z,2.10
2017-08-09T13:02:22.743Z,1.93
2017-08-09T13:04:50.009Z,2.10
2017-08-09T13:07:17.233Z,1.70
2017-08-09T13:09:44.457Z,1.90
2017-08-09T13:12:11.673Z,2.00
2017-08-09T13:14:38.896Z,2.20
2017-08-09T13:17:06.160Z,2.27
2017-08-09T13:19:39.440Z,1.80
2017-08-09T13:22:06.661Z,2.03
2017-08-09T13:24:33.876Z,2.17
2017-08-09T13:27:01.105Z,2.03
2017-08-09T13:29:28.319Z,2.00
2017-08-09T13:31:57.480Z,2.50
2017-08-09T13:34:24.692Z,1.90
2017-08-09T13:36:51.910Z,2.30
2017-08-09T13:39:21.086Z,1.83
2017-08-09T13:41:48.304Z,2.00
2017-08-09T13:44:15.527Z,2.00
2017-08-09T13:46:42.785Z,1.97
2017-08-09T13:49:10.018Z,1.70
2017-08-09T13:51:37.241Z,1.97
2017-08-09T13:54:04.464Z,1.73
2017-08-09T13:56:31.688Z,1.70
2017-08-09T13:59:00.848Z,2.00
2017-08-09T14:01:28.066Z,1.67
2017-08-09T14:03:55.282Z,1.93
2017-08-09T14:06:22.513Z,1.93
2017-08-09T14:08:49.733Z,1.90
2017-08-09T14:11:16.958Z,2.00
2017-08-09T14:13:44.169Z,1.67
2017-08-09T14:16:11.389Z,1.90
2017-08-09T14:18:38.633Z,1.40
2017-08-09T14:21:05.853Z,1.80
2017-08-09T14:23:35.026Z,1.80
2017-08-09T14:26:02.248Z,2.10
2017-08-09T14:28:29.469Z,1.70
2017-08-09T14:30:56.702Z,1.50
2017-08-09T14:33:23.921Z,1.77
2017-08-09T14:35:51.137Z,1.70
2017-08-09T14:38:18.360Z,1.63
2017-08-09T14:40:47.537Z,1.30
2017-08-09T14:43:14.766Z,1.80
2017-08-09T14:45:41.992Z,1.50
2017-08-09T14:48:09.219Z,1.40
2017-08-09T14:50:36.445Z,1.10
2017-08-09T14:53:05.614Z,1.60
2017-08-09T14:55:32.833Z,1.17
2017-08-09T14:58:00.069Z,1.50
2017-08-09T15:00:29.256Z,1.20
2017-08-09T15:02:56.487Z,1.60
2017-08-09T15:05:23.712Z,1.40
2017-08-09T15:07:50.928Z,1.50
2017-08-09T15:10:18.144Z,1.20
2017-08-09T15:12:47.316Z,1.00
2017-08-09T15:15:14.541Z,1.20
2017-08-09T15:17:43.767Z,1.07
2017-08-09T15:20:10.989Z,1.33
2017-08-09T15:22:38.208Z,1.33
2017-08-09T15:25:05.433Z,1.27
2017-08-09T15:27:32.677Z,1.30
2017-08-09T15:29:59.888Z,1.20
2017-08-09T15:32:27.105Z,1.17
2017-08-09T15:34:56.245Z,1.07
2017-08-09T15:37:23.472Z,1.30
2017-08-09T15:39:50.706Z,1.60
2017-08-09T15:42:17.944Z,1.40
2017-08-09T15:44:47.082Z,1.60
2017-08-09T15:47:14.304Z,1.40
2017-08-09T15:49:41.527Z,1.10
2017-08-09T15:52:08.744Z,1.10
2017-08-09T15:54:35.972Z,1.33
2017-08-09T15:57:03.198Z,1.43
2017-08-09T15:59:30.415Z,1.33
2017-08-09T16:01:59.618Z,1.50
2017-08-09T16:04:26.851Z,1.30
2017-08-09T16:06:54.076Z,1.40
2017-08-09T16:09:21.298Z,2.70
2017-08-09T16:11:48.528Z,1.43
2017-08-09T16:14:15.753Z,1.50
2017-08-09T16:16:42.977Z,1.37
2017-08-09T16:19:10.196Z,1.37
2017-08-09T16:21:37.407Z,1.40
2017-08-09T16:24:04.633Z,1.30
2017-08-09T16:26:31.862Z,1.17
2017-08-09T16:28:59.084Z,1.03
2017-08-09T16:31:26.311Z,1.50
2017-08-09T16:33:53.536Z,1.40
2017-08-09T16:36:20.756Z,1.27
2017-08-09T16:38:47.980Z,1.43
2017-08-09T16:41:15.206Z,1.47
2017-08-09T16:43:42.429Z,1.43
2017-08-09T16:46:09.650Z,1.10
2017-08-09T16:48:36.873Z,1.53
2017-08-09T16:51:06.055Z,1.07
2017-08-09T16:53:33.273Z,1.03
2017-08-09T16:56:00.496Z,1.43
2017-08-09T16:58:27.725Z,1.13
2017-08-09T17:00:54.952Z,1.40
2017-08-09T17:03:22.176Z,1.40
2017-08-09T17:05:51.345Z,1.33
2017-08-09T17:08:18.565Z,1.30
2017-08-09T17:10:45.818Z,1.70
2017-08-09T17:13:13.045Z,1.20
2017-08-09T17:15:40.269Z,1.23
2017-08-09T17:18:07.513Z,1.30
2017-08-09T17:20:36.672Z,1.07
2017-08-09T17:23:03.889Z,1.63
2017-08-09T17:25:33.085Z,1.10
2017-08-09T17:28:00.317Z,1.20
2017-08-09T17:30:27.540Z,1.60
2017-08-09T17:32:54.760Z,1.47
2017-08-09T17:35:21.985Z,1.20
2017-08-09T17:37:49.220Z,2.07
2017-08-09T17:40:16.450Z,1.77
2017-08-09T17:42:43.668Z,1.37
2017-08-09T17:45:10.890Z,1.70
2017-08-09T17:47:38.113Z,1.70
2017-08-09T17:50:05.341Z,1.47
2017-08-09T17:52:32.570Z,1.67
2017-08-09T17:54:59.789Z,1.63
2017-08-09T17:57:27.010Z,1.97
2017-08-09T17:59:54.233Z,1.53
2017-08-09T18:02:21.461Z,1.40
2017-08-09T18:04:48.684Z,1.50
2017-08-09T18:07:15.909Z,1.47
2017-08-09T18:09:43.128Z,1.90
2017-08-09T18:12:10.352Z,1.30
2017-08-09T18:14:37.569Z,1.53
2017-08-09T18:17:04.785Z,1.80
2017-08-09T18:19:33.937Z,1.20
2017-08-09T18:22:01.171Z,1.00
2017-08-09T18:24:28.398Z,1.20
2017-08-09T18:26:55.604Z,1.23
2017-08-09T18:29:22.825Z,1.70
2017-08-09T18:31:51.996Z,1.30
2017-08-09T18:34:19.224Z,1.50
2017-08-09T18:36:46.450Z,1.40
2017-08-09T18:39:15.632Z,1.50
2017-08-09T18:41:42.860Z,1.50
2017-08-09T18:44:10.080Z,1.60
2017-08-09T18:46:38.947Z,1.57
2017-08-09T18:49:06.165Z,1.73
2017-08-09T18:51:33.384Z,1.63
2017-08-09T18:54:00.616Z,1.47
2017-08-09T18:56:28.514Z,1.20
2017-08-09T18:58:55.757Z,1.13
2017-08-09T19:01:22.972Z,1.47
2017-08-09T19:03:50.193Z,1.50
2017-08-09T19:06:17.412Z,1.90
2017-08-09T19:08:44.640Z,1.80
2017-08-09T19:11:11.866Z,1.47
2017-08-09T19:13:39.088Z,1.37
2017-08-09T19:16:06.305Z,1.57
2017-08-09T19:18:33.529Z,1.70
2017-08-09T19:21:00.745Z,1.80
2017-08-09T19:23:27.969Z,1.70
2017-08-09T19:25:55.188Z,1.93
2017-08-09T19:28:22.408Z,1.70
2017-08-09T19:30:49.633Z,1.73
2017-08-09T19:33:16.864Z,1.47
2017-08-09T19:35:44.081Z,1.20
2017-08-09T19:38:11.300Z,1.77
2017-08-09T19:40:38.520Z,1.97
2017-08-09T19:43:05.743Z,1.80
2017-08-09T19:45:34.921Z,1.93
2017-08-09T19:48:02.144Z,2.10
2017-08-09T19:50:29.364Z,2.07
2017-08-09T19:52:56.585Z,2.17
2017-08-09T19:55:23.805Z,1.90
2017-08-09T19:57:51.020Z,1.87
2017-08-09T20:00:20.211Z,1.90
2017-08-09T20:02:47.456Z,1.97
2017-08-09T20:05:14.676Z,1.97
2017-08-09T20:07:41.896Z,2.00
2017-08-09T20:10:09.124Z,1.50
2017-08-09T20:12:36.350Z,1.83
2017-08-09T20:15:03.579Z,1.83
2017-08-09T20:17:30.809Z,2.03
2017-08-09T20:19:58.024Z,2.13
2017-08-09T20:22:25.244Z,1.90
2017-08-09T20:24:52.469Z,1.90
2017-08-09T20:27:19.688Z,1.97
2017-08-09T20:29:46.925Z,2.00
2017-08-09T20:32:14.144Z,2.00
2017-08-09T20:34:41.365Z,2.10
2017-08-09T20:37:08.597Z,2.17
2017-08-09T20:39:35.816Z,2.10
2017-08-09T20:42:03.041Z,2.20
2017-08-09T20:44:32.212Z,2.50
2017-08-09T20:46:59.437Z,2.70
2017-08-09T20:49:26.662Z,2.33
2017-08-09T20:51:53.896Z,2.50
2017-08-09T20:54:21.121Z,2.60
2017-08-09T20:56:48.341Z,2.20
2017-08-09T20:59:15.565Z,2.30
2017-08-09T21:01:42.776Z,2.10
2017-08-09T21:04:11.936Z,2.43
2017-08-09T21:06:39.161Z,2.63
2017-08-09T21:09:06.386Z,2.37
2017-08-09T21:11:33.619Z,2.63
2017-08-09T21:14:00.835Z,2.50
2017-08-09T21:16:28.054Z,2.90
2017-08-09T21:18:55.277Z,2.10
2017-08-09T21:21:22.521Z,2.47
2017-08-09T21:23:49.745Z,2.37
2017-08-09T21:26:16.968Z,2.40
2017-08-09T21:28:46.124Z,2.17
2017-08-09T21:31:13.341Z,2.40
2017-08-09T21:33:40.565Z,2.67
2017-08-09T21:36:07.797Z,2.93
2017-08-09T21:38:35.016Z,2.20
2017-08-09T21:41:02.241Z,3.10
2017-08-09T21:43:29.461Z,2.67
2017-08-09T21:45:56.685Z,2.67
2017-08-09T21:48:23.912Z,2.90
2017-08-09T21:50:51.137Z,3.17
2017-08-09T21:53:18.388Z,2.90
2017-08-09T21:55:45.610Z,3.10
2017-08-09T21:58:12.838Z,3.30
2017-08-09T22:00:40.053Z,3.30
2017-08-09T22:03:07.277Z,2.97
2017-08-09T22:05:34.504Z,3.93
2017-08-09T22:08:01.727Z,3.43
2017-08-09T22:10:28.946Z,4.20
2017-08-09T22:12:56.164Z,4.10
2017-08-09T22:15:23.385Z,4.70
2017-08-09T22:17:50.606Z,5.00
2017-08-09T22:20:17.831Z,5.23
2017-08-09T22:22:45.052Z,4.23
2017-08-09T22:25:12.268Z,3.73
2017-08-09T22:27:39.497Z,3.57
2017-08-09T22:30:06.729Z,5.13
2017-08-09T22:32:33.944Z,4.53
2017-08-09T22:35:01.160Z,5.30
2017-08-09T22:37:28.381Z,5.77
2017-08-09T22:39:55.605Z,5.87
2017-08-09T22:42:22.825Z,6.53
2017-08-09T22:44:50.045Z,5.30
2017-08-09T22:47:17.265Z,5.70
2017-08-09T22:49:44.483Z,6.87
2017-08-09T22:52:11.700Z,5.73
2017-08-09T22:54:38.920Z,6.50
2017-08-09T22:57:08.061Z,6.00
2017-08-09T22:59:35.285Z,6.53
2017-08-09T23:02:02.517Z,5.83
2017-08-09T23:04:29.736Z,5.70
2017-08-09T23:06:56.952Z,5.80
2017-08-09T23:09:24.177Z,6.17
2017-08-09T23:11:51.405Z,6.50
2017-08-09T23:14:18.644Z,6.23
2017-08-09T23:16:47.829Z,6.00
2017-08-09T23:19:15.045Z,7.10
2017-08-09T23:21:42.270Z,6.60
2017-08-09T23:24:09.502Z,7.40
2017-08-09T23:26:36.723Z,8.10
2017-08-09T23:29:03.944Z,9.07
2017-08-09T23:31:31.176Z,10.67
2017-08-09T23:33:58.404Z,10.00
2017-08-09T23:36:25.630Z,10.93
2017-08-09T23:38:52.894Z,10.73
2017-08-09T23:41:20.120Z,12.70
2017-08-09T23:43:47.351Z,11.07
2017-08-09T23:46:14.580Z,11.90
2017-08-09T23:48:41.817Z,10.50
2017-08-09T23:51:09.052Z,10.27
2017-08-09T23:53:36.283Z,10.97
2017-08-09T23:56:03.522Z,10.10
2017-08-09T23:58:32.744Z,12.20
